Terminal Aerodrome Forecast
Issued by NWS Cleveland, OH

Home | Current Version | Previous Version | Text Only | Print | Product List | Glossary On
Versions: 1 2 3 4 5 6 7 8 9 10 11 12 13 14 15 16 17 18 19 20 21 22 23 24 25 26 27
000
FTUS41 KCLE 032000 AAC
TAFYNG
TAF AMD
KYNG 032033Z 0321/0418 16012KT 2SM -FZRA BR OVC012
      TEMPO 0321/0323 3/4SM -FZRA BR OVC008
     FM032300 18008KT 2SM -RA BR SCT006 OVC015 WS020/23045KT
      TEMPO 0323/0324 3/4SM -FZRA BR OVC006
     FM040300 21014G20KT 4SM -SHRA BR OVC006
     FM040900 28012KT 4SM -SN BR OVC012=

USA.gov is the U.S. government's official web portal to all federal, state and local government web resources and services.